createdAt,value
2019-02-26T00:01:04.315Z,38.08
2019-02-26T00:03:36.025Z,37.83
2019-02-26T00:06:07.827Z,37.92
2019-02-26T00:08:39.461Z,37.74
2019-02-26T00:11:11.494Z,37.97
2019-02-26T00:13:43.345Z,38.05
2019-02-26T00:16:18.379Z,37.99
2019-02-26T00:18:50.344Z,37.90
2019-02-26T00:21:22.722Z,37.94
2019-02-26T00:23:54.556Z,37.96
2019-02-26T00:26:26.328Z,38.01
2019-02-26T00:28:59.687Z,37.98
2019-02-26T00:31:30.538Z,38.11
2019-02-26T00:34:02.326Z,38.11
2019-02-26T00:36:35.922Z,38.11
2019-02-26T00:39:08.272Z,37.92
2019-02-26T00:41:40.415Z,38.20
2019-02-26T00:44:12.322Z,38.36
2019-02-26T00:46:44.390Z,38.36
2019-02-26T00:49:16.068Z,38.42
2019-02-26T00:51:48.389Z,38.04
2019-02-26T00:54:24.301Z,38.24
2019-02-26T00:56:57.023Z,38.05
2019-02-26T00:59:28.313Z,38.07
2019-02-26T01:01:59.864Z,38.03
2019-02-26T01:04:31.661Z,38.04
2019-02-26T01:07:05.475Z,38.21
2019-02-26T01:09:36.501Z,38.17
2019-02-26T01:12:09.140Z,38.38
2019-02-26T01:14:43.588Z,38.39
2019-02-26T01:17:16.970Z,37.97
2019-02-26T01:19:49.330Z,38.21
2019-02-26T01:22:21.094Z,38.19
2019-02-26T01:24:54.210Z,38.24
2019-02-26T01:27:26.779Z,38.19
2019-02-26T01:30:00.408Z,38.12
2019-02-26T01:32:31.481Z,38.31
2019-02-26T01:35:05.488Z,38.61
2019-02-26T01:37:36.822Z,38.41
2019-02-26T01:40:13.731Z,38.16
2019-02-26T01:42:47.547Z,38.54
2019-02-26T01:45:19.615Z,38.59
2019-02-26T01:47:52.800Z,38.31
2019-02-26T01:50:24.788Z,38.48
2019-02-26T01:52:58.519Z,38.29
2019-02-26T01:55:29.808Z,38.33
2019-02-26T01:58:01.602Z,38.44
2019-02-26T02:00:33.344Z,38.56
2019-02-26T02:03:04.881Z,38.56
2019-02-26T02:05:36.414Z,38.16
2019-02-26T02:08:11.039Z,38.54
2019-02-26T02:10:41.816Z,38.85
2019-02-26T02:13:13.781Z,38.31
2019-02-26T02:15:46.478Z,38.59
2019-02-26T02:18:20.560Z,38.49
2019-02-26T02:20:51.814Z,38.49
2019-02-26T02:23:25.687Z,38.41
2019-02-26T02:25:59.948Z,38.46
2019-02-26T02:28:31.485Z,38.53
2019-02-26T02:31:04.469Z,38.28
2019-02-26T02:33:37.462Z,38.24
2019-02-26T02:36:11.535Z,38.15
2019-02-26T02:38:42.586Z,38.54
2019-02-26T02:41:14.318Z,38.39
2019-02-26T02:43:45.879Z,38.39
2019-02-26T02:46:17.834Z,38.58
2019-02-26T02:48:49.505Z,38.67
2019-02-26T02:51:21.847Z,38.61
2019-02-26T02:53:56.463Z,38.55
2019-02-26T02:56:27.343Z,38.54
2019-02-26T02:58:58.905Z,38.25
2019-02-26T03:01:30.805Z,38.63
2019-02-26T03:04:01.524Z,38.88
2019-02-26T03:06:35.352Z,38.44
2019-02-26T03:09:15.256Z,38.78
2019-02-26T03:11:47.141Z,38.81
2019-02-26T03:14:20.013Z,38.55
2019-02-26T03:16:53.479Z,38.74
2019-02-26T03:19:25.810Z,38.59
2019-02-26T03:21:57.835Z,38.59
2019-02-26T03:24:31.390Z,38.44
2019-02-26T03:27:03.470Z,38.80
2019-02-26T03:29:35.295Z,38.79
2019-02-26T03:32:07.108Z,38.61
2019-02-26T03:34:38.808Z,38.32
2019-02-26T03:37:11.060Z,38.35
2019-02-26T03:39:43.313Z,38.42
2019-02-26T03:42:16.684Z,38.71
2019-02-26T03:44:48.371Z,38.15
2019-02-26T03:47:20.416Z,38.15
2019-02-26T03:49:52.374Z,38.32
2019-02-26T03:52:24.637Z,38.50
2019-02-26T03:54:56.810Z,38.56
2019-02-26T03:57:28.538Z,38.56
2019-02-26T04:00:00.342Z,38.16
2019-02-26T04:02:32.330Z,37.86
2019-02-26T04:05:06.893Z,37.62
2019-02-26T04:07:37.435Z,38.52
2019-02-26T04:10:09.438Z,38.52
2019-02-26T04:12:42.264Z,38.54
2019-02-26T04:15:16.792Z,38.36
2019-02-26T04:17:47.551Z,38.36
2019-02-26T04:20:19.836Z,38.38
2019-02-26T04:22:53.332Z,38.38
2019-02-26T04:26:06.372Z,37.95
2019-02-26T04:29:09.434Z,38.43
2019-02-26T04:32:52.764Z,38.55
2019-02-26T04:35:55.515Z,38.70
2019-02-26T04:39:27.754Z,38.63
2019-02-26T04:43:04.550Z,38.63
2019-02-26T04:46:28.878Z,38.90
2019-02-26T04:49:00.405Z,38.88
2019-02-26T04:51:36.090Z,38.60
2019-02-26T04:54:05.805Z,38.86
2019-02-26T04:56:40.129Z,38.78
2019-02-26T04:59:12.537Z,38.65
2019-02-26T05:01:47.246Z,37.39
2019-02-26T05:04:18.316Z,38.72
2019-02-26T05:06:50.537Z,38.58
2019-02-26T05:09:24.719Z,38.38
2019-02-26T05:11:56.434Z,38.74
2019-02-26T05:14:28.432Z,38.70
2019-02-26T05:17:00.049Z,38.40
2019-02-26T05:19:31.783Z,38.94
2019-02-26T05:22:04.458Z,38.71
2019-02-26T05:24:38.666Z,38.88
2019-02-26T05:27:18.725Z,38.63
2019-02-26T05:29:52.527Z,38.63
2019-02-26T05:32:26.949Z,38.78
2019-02-26T05:34:57.331Z,38.76
2019-02-26T05:37:31.747Z,38.96
2019-02-26T05:40:02.819Z,38.75
2019-02-26T05:42:35.352Z,38.88
2019-02-26T05:45:09.375Z,38.99
2019-02-26T05:47:43.113Z,38.90
2019-02-26T05:50:16.723Z,38.90
2019-02-26T05:52:50.266Z,38.85
2019-02-26T05:55:23.711Z,39.00
2019-02-26T05:57:55.779Z,38.92
2019-02-26T06:00:31.744Z,38.86
2019-02-26T06:03:00.794Z,38.91
2019-02-26T06:05:31.514Z,38.87
2019-02-26T06:08:03.306Z,38.88
2019-02-26T06:10:34.798Z,38.86
2019-02-26T06:13:07.591Z,39.02
2019-02-26T06:15:40.638Z,38.99
2019-02-26T06:18:12.394Z,39.02
2019-02-26T06:20:45.780Z,39.02
2019-02-26T06:23:16.457Z,38.56
2019-02-26T06:25:48.310Z,38.58
2019-02-26T06:28:20.537Z,38.77
2019-02-26T06:33:11.602Z,38.90
2019-02-26T06:35:43.270Z,39.15
2019-02-26T06:38:14.827Z,39.07
2019-02-26T06:40:48.940Z,39.02
2019-02-26T06:43:21.022Z,39.04
2019-02-26T06:45:52.743Z,39.24
2019-02-26T06:48:25.059Z,39.11
2019-02-26T06:50:57.619Z,38.96
2019-02-26T06:53:30.584Z,38.92
2019-02-26T06:56:02.306Z,38.79
2019-02-26T06:58:35.786Z,38.79
2019-02-26T07:01:09.562Z,39.14
2019-02-26T07:03:41.786Z,38.79
2019-02-26T07:06:13.801Z,38.79
2019-02-26T07:08:47.205Z,38.79
2019-02-26T07:11:18.782Z,38.88
2019-02-26T07:13:49.784Z,39.04
2019-02-26T07:16:21.611Z,39.06
2019-02-26T07:18:53.375Z,39.01
2019-02-26T07:21:25.292Z,39.01
2019-02-26T07:23:58.638Z,39.02
2019-02-26T07:26:30.634Z,39.08
2019-02-26T07:29:03.445Z,38.89
2019-02-26T07:31:36.285Z,38.89
2019-02-26T07:34:07.887Z,39.28
2019-02-26T07:36:41.158Z,38.75
2019-02-26T07:39:15.506Z,39.04
2019-02-26T07:41:49.228Z,38.92
2019-02-26T07:44:21.717Z,38.92
2019-02-26T07:46:54.310Z,38.97
2019-02-26T07:49:25.892Z,38.66
2019-02-26T07:51:58.315Z,38.62
2019-02-26T07:54:31.316Z,38.97
2019-02-26T07:57:03.406Z,38.78
2019-02-26T07:59:36.926Z,38.78
2019-02-26T08:02:09.588Z,38.45
2019-02-26T08:04:43.623Z,38.65
2019-02-26T08:07:15.609Z,38.70
2019-02-26T08:09:47.365Z,38.70
2019-02-26T08:12:19.307Z,38.70
2019-02-26T08:14:58.405Z,38.59
2019-02-26T08:17:30.309Z,38.15
2019-02-26T08:20:04.424Z,38.27
2019-02-26T08:22:36.304Z,38.48
2019-02-26T08:25:08.765Z,38.51
2019-02-26T08:27:39.482Z,38.25
2019-02-26T08:30:18.793Z,38.17
2019-02-26T08:32:53.553Z,38.45
2019-02-26T08:35:23.297Z,38.27
2019-02-26T08:37:55.295Z,38.34
2019-02-26T08:40:27.018Z,38.15
2019-02-26T08:42:58.771Z,38.16
2019-02-26T08:45:31.033Z,37.93
2019-02-26T08:48:02.905Z,38.21
2019-02-26T08:50:36.197Z,37.84
2019-02-26T08:53:07.771Z,37.69
2019-02-26T08:55:39.315Z,38.05
2019-02-26T08:58:12.538Z,37.91
2019-02-26T09:00:43.467Z,37.72
2019-02-26T09:03:16.061Z,38.08
2019-02-26T09:05:49.427Z,37.87
2019-02-26T09:08:22.265Z,37.88
2019-02-26T09:10:54.365Z,37.96
2019-02-26T09:13:26.021Z,37.76
2019-02-26T09:15:58.788Z,37.70
2019-02-26T09:18:35.508Z,37.74
2019-02-26T09:21:06.998Z,37.31
2019-02-26T09:23:38.370Z,37.20
2019-02-26T09:26:10.750Z,37.20
2019-02-26T09:28:41.470Z,37.13
2019-02-26T09:31:14.188Z,37.21
2019-02-26T09:33:45.865Z,37.35
2019-02-26T09:36:20.505Z,37.08
2019-02-26T09:38:51.440Z,37.01
2019-02-26T09:41:23.312Z,37.11
2019-02-26T09:43:55.286Z,37.11
2019-02-26T09:46:27.058Z,37.29
2019-02-26T09:49:00.916Z,37.59
2019-02-26T09:51:33.012Z,37.18
2019-02-26T09:54:05.802Z,36.88
2019-02-26T09:56:37.710Z,37.00
2019-02-26T09:59:09.815Z,37.20
2019-02-26T10:01:42.827Z,37.27
2019-02-26T10:04:14.758Z,36.82
2019-02-26T10:06:47.511Z,37.13
2019-02-26T10:09:20.721Z,37.64
2019-02-26T10:11:52.755Z,37.64
2019-02-26T10:14:23.633Z,36.36
2019-02-26T10:16:57.000Z,37.14
2019-02-26T10:19:30.946Z,37.14
2019-02-26T10:22:03.545Z,36.68
2019-02-26T10:24:39.714Z,36.36
2019-02-26T10:27:11.472Z,36.79
2019-02-26T10:29:45.105Z,36.07
2019-02-26T10:32:16.306Z,36.77
2019-02-26T10:34:47.960Z,36.86
2019-02-26T10:37:20.463Z,35.92
2019-02-26T10:39:54.923Z,36.30
2019-02-26T10:42:25.798Z,36.70
2019-02-26T10:44:57.723Z,36.29
2019-02-26T10:47:29.898Z,36.35
2019-02-26T10:50:02.107Z,36.11
2019-02-26T10:52:33.798Z,36.59
2019-02-26T10:55:05.723Z,36.71
2019-02-26T10:57:38.379Z,36.21
2019-02-26T11:00:22.681Z,36.15
2019-02-26T11:02:54.441Z,36.11
2019-02-26T11:05:26.778Z,36.11
2019-02-26T11:08:01.882Z,36.62
2019-02-26T11:10:32.293Z,36.12
2019-02-26T11:13:03.985Z,35.98
2019-02-26T11:15:36.059Z,36.60
2019-02-26T11:18:08.237Z,36.27
2019-02-26T11:20:41.304Z,36.30
2019-02-26T11:23:14.271Z,36.18
2019-02-26T11:25:46.600Z,36.63
2019-02-26T11:28:18.427Z,36.33
2019-02-26T11:30:52.164Z,36.33
2019-02-26T11:33:23.744Z,36.77
2019-02-26T11:35:55.618Z,36.77
2019-02-26T11:38:27.378Z,36.22
2019-02-26T11:40:59.416Z,36.22
2019-02-26T11:43:31.070Z,36.46
2019-02-26T11:46:03.923Z,36.06
2019-02-26T11:48:36.308Z,36.26
2019-02-26T11:51:07.768Z,35.85
2019-02-26T11:53:39.779Z,36.16
2019-02-26T11:56:10.588Z,36.13
2019-02-26T11:58:42.435Z,36.04
2019-02-26T12:01:16.374Z,36.04
2019-02-26T12:03:48.367Z,36.29
2019-02-26T12:06:20.064Z,35.73
2019-02-26T12:08:51.799Z,36.00
2019-02-26T12:11:23.757Z,35.58
2019-02-26T12:13:55.331Z,34.71
2019-02-26T12:16:28.493Z,35.65
2019-02-26T12:19:01.353Z,35.82
2019-02-26T12:21:34.592Z,35.82
2019-02-26T12:24:09.110Z,35.58
2019-02-26T12:26:42.330Z,35.93
2019-02-26T12:29:16.149Z,34.61
2019-02-26T12:31:50.110Z,35.38
2019-02-26T12:34:23.694Z,35.10
2019-02-26T12:36:57.207Z,35.53
2019-02-26T12:39:31.305Z,35.02
2019-02-26T12:42:02.283Z,35.82
2019-02-26T12:44:37.448Z,35.21
2019-02-26T12:47:07.425Z,35.52
2019-02-26T12:49:42.220Z,35.52
2019-02-26T12:52:14.952Z,35.24
2019-02-26T12:54:46.384Z,34.43
2019-02-26T12:57:19.805Z,34.43
2019-02-26T12:59:51.804Z,33.82
2019-02-26T13:02:25.569Z,34.40
2019-02-26T13:04:55.942Z,34.49
2019-02-26T13:07:27.782Z,35.36
2019-02-26T13:10:02.757Z,35.00
2019-02-26T13:12:32.612Z,34.05
2019-02-26T13:15:06.491Z,34.05
2019-02-26T13:17:38.070Z,34.58
2019-02-26T13:20:14.791Z,35.28
2019-02-26T13:22:46.011Z,33.98
2019-02-26T13:25:21.429Z,35.04
2019-02-26T13:27:51.739Z,33.83
2019-02-26T13:30:23.732Z,34.29
2019-02-26T13:32:59.896Z,34.69
2019-02-26T13:35:28.834Z,34.07
2019-02-26T13:38:00.787Z,34.68
2019-02-26T13:40:38.083Z,35.22
2019-02-26T13:45:36.732Z,33.79
2019-02-26T13:48:07.459Z,34.24
2019-02-26T13:50:39.823Z,34.05
2019-02-26T13:53:11.826Z,34.59
2019-02-26T13:55:43.414Z,34.10
2019-02-26T13:58:15.061Z,33.83
2019-02-26T14:00:46.757Z,35.28
2019-02-26T14:03:18.705Z,33.99
2019-02-26T14:05:50.395Z,33.69
2019-02-26T14:08:23.290Z,33.81
2019-02-26T14:10:54.816Z,34.95
2019-02-26T14:13:27.297Z,34.96
2019-02-26T14:15:58.773Z,35.40
2019-02-26T14:18:30.461Z,34.86
2019-02-26T14:21:02.305Z,35.22
2019-02-26T14:23:35.098Z,34.59
2019-02-26T14:26:07.772Z,34.62
2019-02-26T14:28:38.486Z,34.67
2019-02-26T14:31:10.319Z,35.43
2019-02-26T14:33:42.401Z,35.42
2019-02-26T14:36:14.051Z,34.65
2019-02-26T14:38:46.308Z,33.72
2019-02-26T14:41:18.070Z,34.95
2019-02-26T14:43:49.755Z,34.48
2019-02-26T14:46:20.495Z,34.90
2019-02-26T14:48:52.308Z,35.64
2019-02-26T14:51:23.843Z,35.23
2019-02-26T14:53:55.748Z,34.47
2019-02-26T14:56:34.302Z,35.67
2019-02-26T14:59:11.416Z,35.03
2019-02-26T15:01:42.460Z,34.39
2019-02-26T15:04:14.682Z,32.89
2019-02-26T15:06:46.396Z,31.98
2019-02-26T15:09:18.315Z,31.98
2019-02-26T15:11:49.472Z,32.14
2019-02-26T15:14:21.310Z,31.06
2019-02-26T15:16:52.956Z,31.55
2019-02-26T15:19:24.755Z,31.75
2019-02-26T15:21:57.295Z,30.94
2019-02-26T15:24:29.655Z,30.52
2019-02-26T15:27:01.775Z,31.59
2019-02-26T15:29:33.790Z,31.59
2019-02-26T15:32:05.869Z,33.16
2019-02-26T15:34:37.435Z,30.90
2019-02-26T15:37:09.305Z,30.59
2019-02-26T15:39:40.910Z,29.38
2019-02-26T15:42:12.977Z,29.25
2019-02-26T15:44:45.320Z,28.97
2019-02-26T15:47:17.060Z,28.92
2019-02-26T15:49:48.767Z,30.11
2019-02-26T15:52:22.274Z,28.24
2019-02-26T15:54:57.507Z,27.90
2019-02-26T15:57:28.573Z,28.17
2019-02-26T16:00:01.350Z,28.08
2019-02-26T16:02:33.426Z,28.15
2019-02-26T16:05:05.310Z,28.15
2019-02-26T16:07:36.844Z,28.23
2019-02-26T16:10:10.313Z,28.76
2019-02-26T16:12:42.674Z,29.37
2019-02-26T16:15:14.064Z,29.37
2019-02-26T16:17:46.024Z,29.08
2019-02-26T16:20:20.060Z,28.87
2019-02-26T16:22:51.782Z,29.60
2019-02-26T16:25:23.420Z,29.62
2019-02-26T16:27:55.769Z,29.34
2019-02-26T16:30:26.481Z,30.02
2019-02-26T16:32:58.778Z,29.89
2019-02-26T16:35:30.770Z,30.02
2019-02-26T16:38:01.756Z,29.57
2019-02-26T16:40:34.014Z,30.19
2019-02-26T16:43:06.594Z,30.36
2019-02-26T16:45:38.622Z,30.76
2019-02-26T16:48:10.604Z,30.66
2019-02-26T16:50:45.574Z,31.29
2019-02-26T16:53:17.804Z,31.29
2019-02-26T16:55:49.780Z,31.01
2019-02-26T16:58:21.427Z,30.60
2019-02-26T17:00:53.298Z,30.39
2019-02-26T17:03:24.854Z,32.09
2019-02-26T17:05:56.737Z,31.51
2019-02-26T17:08:27.635Z,33.30
2019-02-26T17:10:59.425Z,34.05
2019-02-26T17:13:31.406Z,34.05
2019-02-26T17:16:03.312Z,34.19
2019-02-26T17:18:35.561Z,34.18
2019-02-26T17:21:07.306Z,35.11
2019-02-26T17:23:39.302Z,34.60
2019-02-26T17:26:11.567Z,34.22
2019-02-26T17:28:44.266Z,33.11
2019-02-26T17:31:16.077Z,33.11
2019-02-26T17:33:48.263Z,33.59
2019-02-26T17:36:19.881Z,32.10
2019-02-26T17:38:52.252Z,31.22
2019-02-26T17:41:24.048Z,30.63
2019-02-26T17:43:56.841Z,30.69
2019-02-26T17:46:29.310Z,30.55
2019-02-26T17:49:02.851Z,30.03
2019-02-26T17:51:35.311Z,30.27
2019-02-26T17:54:07.795Z,30.11
2019-02-26T17:56:41.749Z,30.58
2019-02-26T17:59:16.546Z,30.39
2019-02-26T18:01:46.292Z,30.30
2019-02-26T18:04:17.813Z,30.40
2019-02-26T18:06:49.598Z,30.18
2019-02-26T18:09:21.732Z,30.46
2019-02-26T18:11:52.503Z,30.46
2019-02-26T18:14:24.375Z,30.96
2019-02-26T18:16:56.337Z,30.78
2019-02-26T18:19:27.902Z,30.86
2019-02-26T18:21:59.737Z,30.96
2019-02-26T18:24:30.484Z,31.43
2019-02-26T18:27:03.124Z,31.41
2019-02-26T18:29:35.301Z,31.33
2019-02-26T18:32:10.804Z,31.03
2019-02-26T18:34:40.780Z,31.77
2019-02-26T18:37:11.479Z,31.77
2019-02-26T18:39:43.866Z,32.03
2019-02-26T18:42:15.746Z,32.04
2019-02-26T18:44:46.619Z,32.39
2019-02-26T18:47:18.366Z,32.90
2019-02-26T18:49:52.799Z,32.90
2019-02-26T18:52:24.397Z,32.59
2019-02-26T18:54:56.265Z,32.69
2019-02-26T18:57:28.784Z,33.46
2019-02-26T19:00:00.856Z,33.11
2019-02-26T19:02:33.540Z,32.02
2019-02-26T19:05:06.815Z,32.38
2019-02-26T19:07:38.741Z,32.38
2019-02-26T19:10:12.305Z,31.77
2019-02-26T19:12:44.307Z,31.31
2019-02-26T19:15:17.812Z,31.22
2019-02-26T19:17:53.018Z,30.88
2019-02-26T19:20:28.798Z,31.36
2019-02-26T19:23:02.084Z,30.98
2019-02-26T19:25:34.053Z,31.43
2019-02-26T19:28:05.814Z,31.78
2019-02-26T19:30:37.579Z,31.89
2019-02-26T19:33:08.636Z,32.10
2019-02-26T19:35:40.510Z,32.53
2019-02-26T19:38:12.509Z,32.83
2019-02-26T19:40:45.057Z,32.84
2019-02-26T19:43:16.742Z,32.98
2019-02-26T19:45:47.650Z,33.29
2019-02-26T19:48:19.594Z,32.17
2019-02-26T19:50:50.645Z,32.17
2019-02-26T19:53:21.928Z,33.34
2019-02-26T19:55:53.842Z,32.83
2019-02-26T19:58:25.753Z,33.25
2019-02-26T20:00:56.482Z,33.13
2019-02-26T20:03:39.282Z,33.73
2019-02-26T20:06:01.746Z,33.64
2019-02-26T20:08:32.590Z,35.33
2019-02-26T20:11:03.701Z,35.13
2019-02-26T20:13:34.659Z,35.12
2019-02-26T20:16:05.453Z,35.51
2019-02-26T20:18:37.292Z,35.34
2019-02-26T20:21:08.852Z,35.32
2019-02-26T20:23:41.971Z,35.54
2019-02-26T20:26:16.483Z,35.53
2019-02-26T20:28:47.887Z,35.53
2019-02-26T20:31:21.722Z,36.03
2019-02-26T20:33:53.254Z,35.82
2019-02-26T20:36:24.938Z,35.84
2019-02-26T20:38:56.771Z,36.34
2019-02-26T20:41:28.373Z,36.01
2019-02-26T20:44:00.298Z,36.07
2019-02-26T20:46:32.040Z,36.23
2019-02-26T20:49:04.360Z,36.23
2019-02-26T20:51:36.319Z,36.62
2019-02-26T20:54:11.402Z,36.58
2019-02-26T20:56:41.725Z,36.80
2019-02-26T20:59:12.490Z,36.77
2019-02-26T21:01:44.302Z,36.13
2019-02-26T21:04:16.298Z,36.43
2019-02-26T21:06:50.420Z,36.65
2019-02-26T21:09:21.753Z,36.61
2019-02-26T21:11:53.575Z,36.74
2019-02-26T21:14:26.267Z,36.93
2019-02-26T21:16:58.329Z,36.73
2019-02-26T21:19:30.747Z,36.27
2019-02-26T21:22:01.509Z,36.35
2019-02-26T21:24:34.635Z,36.75
2019-02-26T21:27:06.778Z,36.83
2019-02-26T21:29:39.671Z,36.97
2019-02-26T21:32:12.310Z,37.20
2019-02-26T21:34:47.372Z,36.81
2019-02-26T21:37:17.915Z,35.95
2019-02-26T21:39:49.778Z,37.19
2019-02-26T21:42:21.407Z,37.19
2019-02-26T21:44:53.315Z,37.18
2019-02-26T21:47:25.308Z,37.00
2019-02-26T21:49:57.314Z,37.01
2019-02-26T21:54:00.765Z,37.41
2019-02-26T21:56:33.165Z,36.80
2019-02-26T21:59:05.456Z,37.30
2019-02-26T22:01:37.828Z,37.21
2019-02-26T22:04:09.918Z,37.81
2019-02-26T22:06:44.473Z,37.02
2019-02-26T22:09:15.847Z,37.24
2019-02-26T22:11:50.464Z,37.41
2019-02-26T22:14:22.402Z,37.35
2019-02-26T22:16:57.045Z,37.37
2019-02-26T22:19:30.843Z,37.63
2019-02-26T22:22:03.367Z,37.46
2019-02-26T22:24:37.800Z,37.40
2019-02-26T22:27:11.103Z,37.46
2019-02-26T22:29:47.967Z,37.34
2019-02-26T22:32:18.937Z,37.48
2019-02-26T22:34:53.573Z,37.65
2019-02-26T22:37:25.689Z,37.52
2019-02-26T22:39:58.609Z,37.46
2019-02-26T22:42:31.027Z,37.34
2019-02-26T22:45:04.359Z,37.34
2019-02-26T22:47:40.230Z,37.57
2019-02-26T22:50:13.429Z,37.23
2019-02-26T22:52:45.888Z,37.95
2019-02-26T22:55:18.030Z,37.73
2019-02-26T22:57:50.498Z,37.85
2019-02-26T23:01:30.764Z,37.71
2019-02-26T23:04:03.916Z,37.71
2019-02-26T23:06:36.048Z,37.62
2019-02-26T23:09:12.865Z,38.04
2019-02-26T23:11:45.184Z,37.75
2019-02-26T23:14:17.874Z,37.55
2019-02-26T23:16:52.042Z,38.02
2019-02-26T23:19:25.097Z,37.35
2019-02-26T23:21:59.499Z,38.18
2019-02-26T23:24:32.343Z,37.99
2019-02-26T23:27:05.083Z,38.04
2019-02-26T23:29:37.375Z,37.79
2019-02-26T23:32:10.353Z,38.20
2019-02-26T23:34:42.897Z,38.13
2019-02-26T23:37:15.322Z,38.22
2019-02-26T23:39:47.890Z,38.17
2019-02-26T23:42:20.110Z,37.95
2019-02-26T23:44:52.916Z,37.05
2019-02-26T23:47:25.292Z,38.08
2019-02-26T23:49:57.962Z,38.19
2019-02-26T23:52:29.902Z,38.24
2019-02-26T23:55:02.501Z,38.31
2019-02-26T23:57:34.856Z,37.71
